createdAt,value
2017-09-04T00:00:53.832Z,19.70
2017-09-04T00:03:21.424Z,19.60
2017-09-04T00:05:49.020Z,19.60
2017-09-04T00:08:16.248Z,19.60
2017-09-04T00:10:43.485Z,19.60
2017-09-04T00:13:11.448Z,19.60
2017-09-04T00:15:38.267Z,19.60
2017-09-04T00:18:05.100Z,19.60
2017-09-04T00:20:31.952Z,19.60
2017-09-04T00:22:59.433Z,19.60
2017-09-04T00:25:26.257Z,19.60
2017-09-04T00:27:54.100Z,19.60
2017-09-04T00:30:21.720Z,19.60
2017-09-04T00:32:49.725Z,19.60
2017-09-04T00:35:16.949Z,19.60
2017-09-04T00:37:43.921Z,19.60
2017-09-04T00:40:11.521Z,19.60
2017-09-04T00:42:38.354Z,19.60
2017-09-04T00:45:06.039Z,19.60
2017-09-04T00:47:33.290Z,19.60
2017-09-04T00:50:00.513Z,19.60
2017-09-04T00:52:27.336Z,19.60
2017-09-04T00:54:54.164Z,19.60
2017-09-04T00:57:21.380Z,19.60
2017-09-04T00:59:48.611Z,19.60
2017-09-04T01:02:15.860Z,19.60
2017-09-04T01:04:42.716Z,19.60
2017-09-04T01:07:09.560Z,19.60
2017-09-04T01:12:23.749Z,19.60
2017-09-04T01:14:51.393Z,19.60
2017-09-04T01:17:19.369Z,19.60
2017-09-04T01:19:46.200Z,19.60
2017-09-04T01:22:13.787Z,19.60
2017-09-04T01:24:40.616Z,19.60
2017-09-04T01:27:07.840Z,19.50
2017-09-04T01:29:34.690Z,19.60
2017-09-04T01:32:01.929Z,19.60
2017-09-04T01:34:29.178Z,19.60
2017-09-04T01:36:56.016Z,19.60
2017-09-04T01:39:23.236Z,19.60
2017-09-04T01:41:50.283Z,19.60
2017-09-04T01:44:17.164Z,19.60
2017-09-04T01:46:44.018Z,19.60
2017-09-04T01:49:11.684Z,19.60
2017-09-04T01:51:38.579Z,19.50
2017-09-04T01:54:05.437Z,19.50
2017-09-04T01:56:36.179Z,19.50
2017-09-04T01:59:03.003Z,19.50
2017-09-04T02:01:29.825Z,19.50
2017-09-04T02:03:56.648Z,19.50
2017-09-04T02:06:23.484Z,19.50
2017-09-04T02:08:51.448Z,19.50
2017-09-04T02:11:18.281Z,19.50
2017-09-04T02:13:45.137Z,19.50
2017-09-04T02:16:12.353Z,19.50
2017-09-04T02:18:39.184Z,19.50
2017-09-04T02:21:06.417Z,19.50
2017-09-04T02:23:33.753Z,19.50
2017-09-04T02:26:10.113Z,19.50
2017-09-04T02:28:36.952Z,19.50
2017-09-04T02:31:03.772Z,19.50
2017-09-04T02:33:31.751Z,19.50
2017-09-04T02:35:59.001Z,19.50
2017-09-04T02:38:25.853Z,19.50
2017-09-04T02:40:52.712Z,19.50
2017-09-04T02:43:19.544Z,19.50
2017-09-04T02:45:46.788Z,19.50
2017-09-04T02:48:14.766Z,19.50
2017-09-04T02:50:42.360Z,19.50
2017-09-04T02:53:09.187Z,19.50
2017-09-04T02:55:36.009Z,19.50
2017-09-04T02:58:03.605Z,19.50
2017-09-04T03:00:30.837Z,19.50
2017-09-04T03:02:57.660Z,19.50
2017-09-04T03:05:24.925Z,19.50
2017-09-04T03:07:52.913Z,19.50
2017-09-04T03:10:19.755Z,19.50
2017-09-04T03:12:46.993Z,19.50
2017-09-04T03:15:14.982Z,19.50
2017-09-04T03:17:44.100Z,19.40
2017-09-04T03:20:10.928Z,19.50
2017-09-04T03:22:37.749Z,19.40
2017-09-04T03:25:04.981Z,19.40
2017-09-04T03:27:31.820Z,19.40
2017-09-04T03:29:59.052Z,19.40
2017-09-04T03:32:25.916Z,19.40
2017-09-04T03:34:52.752Z,19.40
2017-09-04T03:37:19.604Z,19.50
2017-09-04T03:42:29.849Z,19.50
2017-09-04T03:44:57.480Z,19.40
2017-09-04T03:47:24.317Z,19.40
2017-09-04T03:49:52.276Z,19.40
2017-09-04T03:52:19.492Z,19.40
2017-09-04T03:54:46.720Z,19.40
2017-09-04T03:57:13.545Z,19.40
2017-09-04T03:59:40.364Z,19.40
2017-09-04T04:02:08.324Z,19.40
2017-09-04T04:04:35.144Z,19.40
2017-09-04T04:07:01.997Z,19.40
2017-09-04T04:09:28.821Z,19.40
2017-09-04T04:11:55.672Z,19.40
2017-09-04T04:14:22.893Z,19.40
2017-09-04T04:16:51.224Z,19.40
2017-09-04T04:19:18.803Z,19.40
2017-09-04T04:21:45.646Z,19.40
2017-09-04T04:24:12.488Z,19.40
2017-09-04T04:26:39.328Z,19.40
2017-09-04T04:29:06.180Z,19.40
2017-09-04T04:31:33.036Z,19.40
2017-09-04T04:33:59.908Z,19.40
2017-09-04T04:36:27.505Z,19.40
2017-09-04T04:41:30.172Z,19.40
2017-09-04T04:43:57.017Z,19.40
2017-09-04T04:46:24.628Z,19.40
2017-09-04T04:48:51.485Z,19.40
2017-09-04T04:51:19.113Z,19.40
2017-09-04T04:53:46.887Z,19.40
2017-09-04T04:56:18.612Z,19.40
2017-09-04T04:58:45.832Z,19.40
2017-09-04T05:01:13.048Z,19.40
2017-09-04T05:03:39.875Z,19.40
2017-09-04T05:06:07.472Z,19.40
2017-09-04T05:08:34.296Z,19.40
2017-09-04T05:11:01.549Z,19.40
2017-09-04T05:13:29.152Z,19.40
2017-09-04T05:15:56.388Z,19.40
2017-09-04T05:18:23.225Z,19.40
2017-09-04T05:20:50.108Z,19.40
2017-09-04T05:23:16.932Z,19.40
2017-09-04T05:25:44.801Z,19.40
2017-09-04T05:28:11.645Z,19.30
2017-09-04T05:30:39.608Z,19.40
2017-09-04T05:33:06.837Z,19.30
2017-09-04T05:35:33.660Z,19.40
2017-09-04T05:38:00.500Z,19.40
2017-09-04T05:40:27.328Z,19.30
2017-09-04T05:42:54.164Z,19.40
2017-09-04T05:45:21.025Z,19.40
2017-09-04T05:47:48.256Z,19.40
2017-09-04T05:50:15.087Z,19.30
2017-09-04T05:52:42.333Z,19.40
2017-09-04T05:55:09.591Z,19.30
2017-09-04T05:57:36.864Z,19.30
2017-09-04T06:00:03.701Z,19.30
2017-09-04T06:02:30.544Z,19.40
2017-09-04T06:04:57.384Z,19.30
2017-09-04T06:07:24.207Z,19.30
2017-09-04T06:09:51.039Z,19.30
2017-09-04T06:12:18.633Z,19.30
2017-09-04T06:14:45.480Z,19.40
2017-09-04T06:17:12.324Z,19.30
2017-09-04T06:19:39.565Z,19.30
2017-09-04T06:22:06.405Z,19.30
2017-09-04T06:24:33.232Z,19.30
2017-09-04T06:27:00.065Z,19.30
2017-09-04T06:29:26.919Z,19.30
2017-09-04T06:31:55.489Z,19.30
2017-09-04T06:34:22.997Z,19.30
2017-09-04T06:36:49.837Z,19.30
2017-09-04T06:42:06.088Z,19.40
2017-09-04T06:44:32.912Z,19.40
2017-09-04T06:46:59.729Z,19.40
2017-09-04T06:49:26.973Z,19.30
2017-09-04T06:51:53.793Z,19.30
2017-09-04T06:54:21.032Z,19.40
2017-09-04T06:56:47.848Z,19.30
2017-09-04T06:59:14.726Z,19.30
2017-09-04T07:01:41.541Z,19.30
2017-09-04T07:04:08.393Z,19.30
2017-09-04T07:06:35.228Z,19.40
2017-09-04T07:09:02.068Z,19.30
2017-09-04T07:11:31.365Z,19.40
2017-09-04T07:13:58.188Z,19.40
2017-09-04T07:16:25.031Z,19.40
2017-09-04T07:18:52.879Z,19.40
2017-09-04T07:21:19.759Z,19.40
2017-09-04T07:23:46.588Z,19.40
2017-09-04T07:26:19.873Z,19.30
2017-09-04T07:28:46.697Z,19.40
2017-09-04T07:31:13.532Z,19.40
2017-09-04T07:33:40.372Z,19.40
2017-09-04T07:36:07.596Z,19.40
2017-09-04T07:38:34.441Z,19.40
2017-09-04T07:41:01.280Z,19.40
2017-09-04T07:43:28.096Z,19.40
2017-09-04T07:45:55.313Z,19.40
2017-09-04T07:48:22.187Z,19.40
2017-09-04T07:50:49.004Z,19.30
2017-09-04T07:53:15.832Z,19.40
2017-09-04T07:55:42.661Z,19.40
2017-09-04T07:58:09.502Z,19.40
2017-09-04T08:00:36.495Z,19.40
2017-09-04T08:03:03.324Z,19.40
2017-09-04T08:05:30.913Z,19.40
2017-09-04T08:07:58.144Z,19.40
2017-09-04T08:10:24.988Z,19.40
2017-09-04T08:12:52.208Z,19.40
2017-09-04T08:15:19.467Z,19.40
2017-09-04T08:17:46.688Z,19.40
2017-09-04T08:20:14.636Z,19.40
2017-09-04T08:22:42.005Z,19.40
2017-09-04T08:25:08.821Z,19.40
2017-09-04T08:27:35.640Z,19.40
2017-09-04T08:30:02.469Z,19.40
2017-09-04T08:32:29.292Z,19.40
2017-09-04T08:34:56.124Z,19.40
2017-09-04T08:37:23.344Z,19.40
2017-09-04T08:42:36.700Z,19.40
2017-09-04T08:45:03.532Z,19.40
2017-09-04T08:47:31.148Z,19.40
2017-09-04T08:49:57.974Z,19.40
2017-09-04T08:52:25.744Z,19.40
2017-09-04T08:54:52.636Z,19.40
2017-09-04T08:57:19.460Z,19.40
2017-09-04T08:59:46.294Z,19.40
2017-09-04T09:02:13.136Z,19.40
2017-09-04T09:04:39.958Z,19.40
2017-09-04T09:07:06.832Z,19.40
2017-09-04T09:12:23.108Z,19.50
2017-09-04T09:14:49.948Z,19.40
2017-09-04T09:17:16.808Z,19.50
2017-09-04T09:19:43.649Z,19.40
2017-09-04T09:22:10.513Z,19.40
2017-09-04T09:24:37.360Z,19.50
2017-09-04T09:27:04.191Z,19.40
2017-09-04T09:29:31.026Z,19.50
2017-09-04T09:31:58.245Z,19.40
2017-09-04T09:34:25.465Z,19.40
2017-09-04T09:36:52.708Z,19.40
2017-09-04T09:42:09.380Z,19.50
2017-09-04T09:44:36.231Z,19.50
2017-09-04T09:47:03.085Z,19.50
2017-09-04T09:49:29.912Z,19.50
2017-09-04T09:51:56.765Z,19.50
2017-09-04T09:54:23.604Z,19.50
2017-09-04T09:56:50.444Z,19.50
2017-09-04T09:59:17.285Z,19.50
2017-09-04T10:01:44.176Z,19.50
2017-09-04T10:04:11.043Z,19.50
2017-09-04T10:06:37.860Z,19.50
2017-09-04T10:09:04.733Z,19.50
2017-09-04T10:11:31.637Z,19.50
2017-09-04T10:13:59.849Z,19.50
2017-09-04T10:16:26.668Z,19.50
2017-09-04T10:18:53.480Z,19.50
2017-09-04T10:21:20.325Z,19.50
2017-09-04T10:23:47.481Z,19.50
2017-09-04T10:26:14.328Z,19.50
2017-09-04T10:28:41.148Z,19.50
2017-09-04T10:31:08.039Z,19.50
2017-09-04T10:33:34.860Z,19.60
2017-09-04T10:36:01.696Z,19.50
2017-09-04T10:38:28.512Z,19.50
2017-09-04T10:40:55.356Z,19.60
2017-09-04T10:43:22.614Z,19.60
2017-09-04T10:45:49.438Z,19.60
2017-09-04T10:48:17.196Z,19.60
2017-09-04T10:50:44.020Z,19.60
2017-09-04T10:53:11.265Z,19.60
2017-09-04T10:55:38.099Z,19.60
2017-09-04T10:58:05.728Z,19.60
2017-09-04T11:00:32.580Z,19.60
2017-09-04T11:02:59.436Z,19.60
2017-09-04T11:05:26.337Z,19.60
2017-09-04T11:07:53.217Z,19.60
2017-09-04T11:10:20.040Z,19.60
2017-09-04T11:12:46.865Z,19.60
2017-09-04T11:15:13.696Z,19.60
2017-09-04T11:17:40.632Z,19.60
2017-09-04T11:20:07.477Z,19.60
2017-09-04T11:22:34.313Z,19.60
2017-09-04T11:25:01.179Z,19.60
2017-09-04T11:27:28.500Z,19.60
2017-09-04T11:29:55.868Z,19.60
2017-09-04T11:32:22.705Z,19.60
2017-09-04T11:34:50.097Z,19.60
2017-09-04T11:37:16.916Z,19.60
2017-09-04T11:42:34.414Z,19.60
2017-09-04T11:45:01.653Z,19.60
2017-09-04T11:47:28.477Z,19.60
2017-09-04T11:49:56.108Z,19.60
2017-09-04T11:52:23.702Z,19.60
2017-09-04T11:54:50.527Z,19.60
2017-09-04T11:57:17.788Z,19.60
2017-09-04T11:59:44.643Z,19.60
2017-09-04T12:02:11.501Z,19.60
2017-09-04T12:04:39.285Z,19.60
2017-09-04T12:07:06.141Z,19.60
2017-09-04T12:12:24.140Z,19.70
2017-09-04T12:14:50.976Z,19.70
2017-09-04T12:17:17.802Z,19.70
2017-09-04T12:19:44.632Z,19.70
2017-09-04T12:22:11.456Z,19.60
2017-09-04T12:24:38.676Z,19.60
2017-09-04T12:27:05.509Z,19.60
2017-09-04T12:29:32.364Z,19.60
2017-09-04T12:31:59.496Z,19.60
2017-09-04T12:34:26.361Z,19.70
2017-09-04T12:36:53.204Z,19.70
2017-09-04T12:42:11.069Z,19.70
2017-09-04T12:44:37.904Z,19.70
2017-09-04T12:47:05.217Z,19.70
2017-09-04T12:49:32.044Z,19.70
2017-09-04T12:51:58.864Z,19.70
2017-09-04T12:54:26.125Z,19.70
2017-09-04T12:56:53.733Z,19.70
2017-09-04T12:59:20.952Z,19.70
2017-09-04T13:01:47.767Z,19.70
2017-09-04T13:04:14.601Z,19.70
2017-09-04T13:06:41.424Z,19.70
2017-09-04T13:09:08.253Z,19.70
2017-09-04T13:11:41.103Z,19.80
2017-09-04T13:14:23.728Z,19.70
2017-09-04T13:16:56.140Z,19.70
2017-09-04T13:19:40.716Z,19.70
2017-09-04T13:22:13.500Z,19.70
2017-09-04T13:24:45.972Z,19.70
2017-09-04T13:27:18.369Z,19.70
2017-09-04T13:29:50.744Z,19.70
2017-09-04T13:32:37.781Z,19.70
2017-09-04T13:35:22.235Z,19.70
2017-09-04T13:37:54.664Z,19.70
2017-09-04T13:43:12.996Z,19.80
2017-09-04T13:45:45.708Z,19.80
2017-09-04T13:48:18.209Z,19.80
2017-09-04T13:50:51.725Z,19.70
2017-09-04T13:53:24.523Z,19.70
2017-09-04T13:56:02.816Z,19.80
2017-09-04T13:58:47.385Z,19.80
2017-09-04T14:01:30.585Z,19.80
2017-09-04T14:04:00.784Z,19.80
2017-09-04T14:06:33.492Z,19.80
2017-09-04T14:09:05.920Z,19.80
2017-09-04T14:11:39.460Z,19.80
2017-09-04T14:14:06.917Z,19.80
2017-09-04T14:16:39.309Z,19.80
2017-09-04T14:19:22.801Z,19.80
2017-09-04T14:21:49.633Z,19.80
2017-09-04T14:24:17.642Z,19.80
2017-09-04T14:26:44.460Z,19.80
2017-09-04T14:29:11.280Z,19.80
2017-09-04T14:31:38.121Z,19.80
2017-09-04T14:34:05.361Z,19.80
2017-09-04T14:36:32.184Z,19.80
2017-09-04T14:38:59.008Z,19.80
2017-09-04T14:41:27.712Z,19.90
2017-09-04T14:44:00.991Z,19.90
2017-09-04T14:46:28.800Z,19.90
2017-09-04T14:48:55.639Z,19.90
2017-09-04T14:51:22.490Z,19.80
2017-09-04T14:53:49.322Z,19.80
2017-09-04T14:56:16.572Z,19.90
2017-09-04T14:58:43.796Z,19.90
2017-09-04T15:01:11.054Z,19.90
2017-09-04T15:03:37.884Z,19.90
2017-09-04T15:06:04.712Z,19.90
2017-09-04T15:08:32.361Z,19.90
2017-09-04T15:10:59.200Z,19.90
2017-09-04T15:13:26.040Z,19.90
2017-09-04T15:15:52.872Z,19.90
2017-09-04T15:18:20.140Z,19.90
2017-09-04T15:20:46.985Z,19.90
2017-09-04T15:23:14.224Z,19.90
2017-09-04T15:25:41.049Z,19.90
2017-09-04T15:28:07.913Z,19.90
2017-09-04T15:30:34.748Z,19.90
2017-09-04T15:33:01.617Z,19.90
2017-09-04T15:35:28.444Z,19.90
2017-09-04T15:37:55.739Z,19.90
2017-09-04T15:40:23.725Z,20.00
2017-09-04T15:42:50.984Z,20.00
2017-09-04T15:45:17.807Z,20.00
2017-09-04T15:47:45.037Z,20.00
2017-09-04T15:50:11.893Z,20.00
2017-09-04T15:52:38.734Z,20.00
2017-09-04T15:55:05.576Z,20.00
2017-09-04T15:57:32.420Z,20.00
2017-09-04T15:59:59.265Z,20.00
2017-09-04T16:02:26.104Z,20.00
2017-09-04T16:04:52.985Z,20.00
2017-09-04T16:07:19.824Z,20.00
2017-09-04T16:12:46.817Z,20.00
2017-09-04T16:15:14.435Z,20.00
2017-09-04T16:17:48.628Z,20.00
2017-09-04T16:20:17.955Z,20.00
2017-09-04T16:22:45.228Z,20.00
2017-09-04T16:25:28.888Z,20.00
2017-09-04T16:28:01.760Z,20.00
2017-09-04T16:30:28.624Z,20.00
2017-09-04T16:33:01.831Z,20.00
2017-09-04T16:35:32.397Z,20.00
2017-09-04T16:38:00.788Z,20.00
2017-09-04T16:40:27.724Z,20.10
2017-09-04T16:42:55.804Z,20.00
2017-09-04T16:45:30.392Z,20.00
2017-09-04T16:48:01.324Z,20.00
2017-09-04T16:50:43.841Z,20.00
2017-09-04T16:53:27.384Z,20.00
2017-09-04T16:58:24.518Z,20.00
2017-09-04T17:00:51.345Z,20.00
2017-09-04T17:03:18.176Z,20.00
2017-09-04T17:05:45.770Z,20.00
2017-09-04T17:08:13.465Z,20.00
2017-09-04T17:10:41.441Z,20.00
2017-09-04T17:13:08.266Z,20.00
2017-09-04T17:15:35.092Z,20.00
2017-09-04T17:18:03.619Z,20.00
2017-09-04T17:20:32.573Z,20.00
2017-09-04T17:23:00.934Z,20.00
2017-09-04T17:25:43.445Z,19.90
2017-09-04T17:28:10.289Z,19.90
2017-09-04T17:30:37.121Z,19.90
2017-09-04T17:33:03.992Z,19.90
2017-09-04T17:35:30.825Z,19.90
2017-09-04T17:37:59.212Z,19.90
2017-09-04T17:40:27.448Z,20.00
2017-09-04T17:42:55.408Z,19.90
2017-09-04T17:45:22.253Z,19.90
2017-09-04T17:47:49.737Z,19.90
2017-09-04T17:50:18.085Z,19.90
2017-09-04T17:52:45.224Z,19.90
2017-09-04T17:55:12.048Z,19.90
2017-09-04T17:57:39.640Z,19.90
2017-09-04T18:00:06.500Z,19.90
2017-09-04T18:02:33.927Z,19.90
2017-09-04T18:05:00.925Z,19.90
2017-09-04T18:07:27.781Z,19.90
2017-09-04T18:12:45.058Z,19.90
2017-09-04T18:15:11.881Z,19.90
2017-09-04T18:17:38.708Z,19.90
2017-09-04T18:20:05.541Z,19.90
2017-09-04T18:22:33.150Z,19.90
2017-09-04T18:25:00.373Z,19.90
2017-09-04T18:27:27.272Z,19.90
2017-09-04T18:29:54.503Z,19.90
2017-09-04T18:32:21.782Z,19.90
2017-09-04T18:34:48.608Z,19.90
2017-09-04T18:37:16.593Z,19.90
2017-09-04T18:42:32.693Z,19.90
2017-09-04T18:44:59.517Z,19.90
2017-09-04T18:47:27.218Z,19.90
2017-09-04T18:49:54.436Z,19.90
2017-09-04T18:52:21.285Z,19.90
2017-09-04T18:54:49.425Z,19.90
2017-09-04T18:57:16.257Z,19.90
2017-09-04T18:59:43.081Z,19.90
2017-09-04T19:02:09.909Z,19.90
2017-09-04T19:04:36.731Z,19.90
2017-09-04T19:07:04.704Z,19.90
2017-09-04T19:12:22.504Z,19.90
2017-09-04T19:14:52.706Z,19.90
2017-09-04T19:17:19.545Z,19.90
2017-09-04T19:19:46.928Z,19.90
2017-09-04T19:22:13.772Z,19.90
2017-09-04T19:24:41.434Z,19.80
2017-09-04T19:27:10.808Z,19.90
2017-09-04T19:29:38.405Z,19.90
2017-09-04T19:32:05.242Z,19.90
2017-09-04T19:34:32.465Z,19.90
2017-09-04T19:36:59.702Z,19.90
2017-09-04T19:42:16.257Z,19.90
2017-09-04T19:44:43.508Z,19.90
2017-09-04T19:47:10.340Z,19.90
2017-09-04T19:49:37.672Z,19.80
2017-09-04T19:52:04.898Z,19.80
2017-09-04T19:54:32.175Z,19.80
2017-09-04T19:56:59.048Z,19.80
2017-09-04T19:59:25.902Z,19.80
2017-09-04T20:01:52.734Z,19.80
2017-09-04T20:04:19.552Z,19.80
2017-09-04T20:06:46.836Z,19.80
2017-09-04T20:09:13.703Z,19.80
2017-09-04T20:11:40.592Z,19.90
2017-09-04T20:14:07.459Z,19.90
2017-09-04T20:16:34.348Z,19.90
2017-09-04T20:19:01.204Z,19.80
2017-09-04T20:21:28.125Z,19.80
2017-09-04T20:23:54.984Z,19.80
2017-09-04T20:26:21.850Z,19.80
2017-09-04T20:28:49.105Z,19.80
2017-09-04T20:31:17.512Z,19.80
2017-09-04T20:33:44.428Z,19.80
2017-09-04T20:36:11.943Z,19.80
2017-09-04T20:38:38.820Z,19.80
2017-09-04T20:41:06.444Z,19.90
2017-09-04T20:43:33.668Z,19.80
2017-09-04T20:46:00.531Z,19.80
2017-09-04T20:48:27.408Z,19.80
2017-09-04T20:50:54.658Z,19.80
2017-09-04T20:53:21.532Z,19.80
2017-09-04T20:55:48.391Z,19.80
2017-09-04T20:58:16.016Z,19.80
2017-09-04T21:00:42.903Z,19.80
2017-09-04T21:03:10.163Z,19.80
2017-09-04T21:05:37.059Z,19.80
2017-09-04T21:08:04.316Z,19.80
2017-09-04T21:10:35.434Z,19.90
2017-09-04T21:13:02.703Z,19.80
2017-09-04T21:15:29.556Z,19.80
2017-09-04T21:17:56.797Z,19.80
2017-09-04T21:20:25.044Z,19.80
2017-09-04T21:22:51.895Z,19.80
2017-09-04T21:25:18.751Z,19.80
2017-09-04T21:27:46.359Z,19.80
2017-09-04T21:30:13.260Z,19.80
2017-09-04T21:32:40.153Z,19.80
2017-09-04T21:35:07.426Z,19.80
2017-09-04T21:37:34.312Z,19.80
2017-09-04T21:40:01.168Z,19.80
2017-09-04T21:42:28.025Z,19.80
2017-09-04T21:44:54.882Z,19.80
2017-09-04T21:47:21.723Z,19.80
2017-09-04T21:49:48.572Z,19.80
2017-09-04T21:52:15.833Z,19.80
2017-09-04T21:54:42.707Z,19.80
2017-09-04T21:57:09.544Z,19.80
2017-09-04T21:59:36.796Z,19.80
2017-09-04T22:02:03.636Z,19.80
2017-09-04T22:04:30.488Z,19.80
2017-09-04T22:06:57.331Z,19.80
2017-09-04T22:09:24.177Z,19.80
2017-09-04T22:11:51.460Z,19.80
2017-09-04T22:14:19.087Z,19.80
2017-09-04T22:16:46.375Z,19.80
2017-09-04T22:19:13.273Z,19.80
2017-09-04T22:21:40.121Z,19.80
2017-09-04T22:24:06.968Z,19.80
2017-09-04T22:26:34.951Z,19.80
2017-09-04T22:29:02.200Z,19.70
2017-09-04T22:31:29.120Z,19.80
2017-09-04T22:33:55.969Z,19.70
2017-09-04T22:36:23.216Z,19.70
2017-09-04T22:38:50.087Z,19.80
2017-09-04T22:41:16.949Z,19.80
2017-09-04T22:43:44.616Z,19.70
2017-09-04T22:46:11.476Z,19.70
2017-09-04T22:48:39.111Z,19.70
2017-09-04T22:51:05.960Z,19.70
2017-09-04T22:53:33.208Z,19.70
2017-09-04T22:56:00.452Z,19.70
2017-09-04T22:58:27.295Z,19.70
2017-09-04T23:00:54.174Z,19.70
2017-09-04T23:03:21.051Z,19.70
2017-09-04T23:05:47.955Z,19.70
2017-09-04T23:08:15.619Z,19.70
2017-09-04T23:10:43.566Z,19.80
2017-09-04T23:13:10.460Z,19.80
2017-09-04T23:15:37.379Z,19.70
2017-09-04T23:18:04.268Z,19.70
2017-09-04T23:20:31.148Z,19.70
2017-09-04T23:22:58.422Z,19.70
2017-09-04T23:25:25.302Z,19.70
2017-09-04T23:27:52.183Z,19.70
2017-09-04T23:30:19.060Z,19.70
2017-09-04T23:32:45.943Z,19.70
2017-09-04T23:35:13.211Z,19.70
2017-09-04T23:37:40.599Z,19.70
2017-09-04T23:40:07.470Z,19.70
2017-09-04T23:42:35.178Z,19.70
2017-09-04T23:45:02.059Z,19.70
2017-09-04T23:47:29.602Z,19.70
2017-09-04T23:49:57.292Z,19.70
2017-09-04T23:52:24.158Z,19.70
2017-09-04T23:54:51.039Z,19.70
2017-09-04T23:57:17.915Z,19.70
2017-09-04T23:59:44.791Z,19.70
